sensor_id;sensor_type;location;lat;lon;timestamp;pressure;altitude;pressure_sealevel;temperature;humidity
55347;BME280;41218;55.700;38.270;2023-07-28T00:04:05;98376.38;;;21.89;70.01
55347;BME280;41218;55.700;38.270;2023-07-28T00:09:07;98372.00;;;21.88;69.47
55347;BME280;41218;55.700;38.270;2023-07-28T00:14:08;98362.56;;;21.76;69.89
55347;BME280;41218;55.700;38.270;2023-07-28T00:19:08;98363.34;;;21.76;69.73
55347;BME280;41218;55.700;38.270;2023-07-28T00:24:09;98359.16;;;21.72;69.83
55347;BME280;41218;55.700;38.270;2023-07-28T00:29:09;98376.50;;;21.70;69.75
55347;BME280;41218;55.700;38.270;2023-07-28T00:34:10;98373.28;;;21.63;69.90
55347;BME280;41218;55.700;38.270;2023-07-28T00:39:10;98378.59;;;21.60;69.63
55347;BME280;41218;55.700;38.270;2023-07-28T00:44:11;98381.72;;;21.63;69.71
55347;BME280;41218;55.700;38.270;2023-07-28T00:49:11;98400.03;;;21.58;70.09
55347;BME280;41218;55.700;38.270;2023-07-28T00:54:12;98358.19;;;21.51;69.78
55347;BME280;41218;55.700;38.270;2023-07-28T00:59:13;98364.91;;;21.53;69.97
55347;BME280;41218;55.700;38.270;2023-07-28T01:04:14;98377.56;;;21.49;69.88
55347;BME280;41218;55.700;38.270;2023-07-28T01:09:21;98379.31;;;21.46;70.36
55347;BME280;41218;55.700;38.270;2023-07-28T01:14:24;98373.69;;;21.46;69.98
55347;BME280;41218;55.700;38.270;2023-07-28T01:19:25;98353.72;;;21.44;70.25
55347;BME280;41218;55.700;38.270;2023-07-28T01:24:38;98359.19;;;21.38;70.49
55347;BME280;41218;55.700;38.270;2023-07-28T01:29:42;98356.69;;;21.40;70.09
55347;BME280;41218;55.700;38.270;2023-07-28T01:34:43;98360.47;;;21.37;70.32
55347;BME280;41218;55.700;38.270;2023-07-28T01:39:43;98353.09;;;21.40;70.15
55347;BME280;41218;55.700;38.270;2023-07-28T01:44:44;98361.53;;;21.40;70.42
55347;BME280;41218;55.700;38.270;2023-07-28T01:49:44;98354.53;;;21.35;70.37
55347;BME280;41218;55.700;38.270;2023-07-28T01:54:45;98350.44;;;21.36;70.35
55347;BME280;41218;55.700;38.270;2023-07-28T01:59:45;98349.97;;;21.38;70.33
55347;BME280;41218;55.700;38.270;2023-07-28T02:04:46;98346.56;;;21.34;70.41
55347;BME280;41218;55.700;38.270;2023-07-28T02:09:46;98350.44;;;21.36;70.63
55347;BME280;41218;55.700;38.270;2023-07-28T02:14:47;98356.84;;;21.37;70.48
55347;BME280;41218;55.700;38.270;2023-07-28T02:19:48;98359.66;;;21.37;70.46
55347;BME280;41218;55.700;38.270;2023-07-28T02:24:48;98338.31;;;21.30;70.28
55347;BME280;41218;55.700;38.270;2023-07-28T02:29:49;98339.88;;;21.31;70.47
55347;BME280;41218;55.700;38.270;2023-07-28T02:34:49;98368.59;;;21.35;70.26
55347;BME280;41218;55.700;38.270;2023-07-28T02:39:50;98369.81;;;21.34;70.35
55347;BME280;41218;55.700;38.270;2023-07-28T02:44:51;98366.84;;;21.38;70.37
55347;BME280;41218;55.700;38.270;2023-07-28T02:49:51;98365.78;;;21.35;70.37
55347;BME280;41218;55.700;38.270;2023-07-28T02:54:52;98374.97;;;21.36;70.03
55347;BME280;41218;55.700;38.270;2023-07-28T02:59:52;98366.53;;;21.36;70.19
55347;BME280;41218;55.700;38.270;2023-07-28T03:04:53;98361.53;;;21.40;70.23
55347;BME280;41218;55.700;38.270;2023-07-28T03:09:54;98377.78;;;21.36;69.92
55347;BME280;41218;55.700;38.270;2023-07-28T03:14:54;98388.84;;;21.39;70.26
55347;BME280;41218;55.700;38.270;2023-07-28T03:19:55;98394.78;;;21.41;70.16
55347;BME280;41218;55.700;38.270;2023-07-28T03:24:56;98387.91;;;21.43;69.96
55347;BME280;41218;55.700;38.270;2023-07-28T03:29:56;98399.75;;;21.47;70.05
55347;BME280;41218;55.700;38.270;2023-07-28T03:34:57;98391.75;;;21.54;70.19
55347;BME280;41218;55.700;38.270;2023-07-28T03:39:58;98397.56;;;21.51;69.92
55347;BME280;41218;55.700;38.270;2023-07-28T03:44:58;98412.81;;;21.59;69.70
55347;BME280;41218;55.700;38.270;2023-07-28T03:49:59;98424.25;;;21.55;69.80
55347;BME280;41218;55.700;38.270;2023-07-28T03:54:59;98471.75;;;21.53;70.07
55347;BME280;41218;55.700;38.270;2023-07-28T04:00:00;98549.50;;;21.56;69.84
55347;BME280;41218;55.700;38.270;2023-07-28T04:05:00;98534.22;;;21.48;70.21
55347;BME280;41218;55.700;38.270;2023-07-28T04:10:01;98516.75;;;21.44;70.53
55347;BME280;41218;55.700;38.270;2023-07-28T04:15:02;98485.66;;;21.48;70.71
55347;BME280;41218;55.700;38.270;2023-07-28T04:20:03;98435.19;;;21.53;71.54
55347;BME280;41218;55.700;38.270;2023-07-28T04:25:04;98392.22;;;21.53;71.46
55347;BME280;41218;55.700;38.270;2023-07-28T04:30:06;98361.72;;;21.60;71.52
55347;BME280;41218;55.700;38.270;2023-07-28T04:35:07;98326.06;;;21.67;71.73
55347;BME280;41218;55.700;38.270;2023-07-28T04:40:08;98301.75;;;21.78;71.99
55347;BME280;41218;55.700;38.270;2023-07-28T04:45:09;98309.81;;;21.86;72.89
55347;BME280;41218;55.700;38.270;2023-07-28T04:50:10;98315.72;;;21.88;72.76
55347;BME280;41218;55.700;38.270;2023-07-28T04:55:10;98340.03;;;22.00;72.69
55347;BME280;41218;55.700;38.270;2023-07-28T05:00:11;98364.31;;;22.12;72.80
55347;BME280;41218;55.700;38.270;2023-07-28T05:05:12;98358.56;;;22.21;72.88
55347;BME280;41218;55.700;38.270;2023-07-28T05:10:12;98332.09;;;22.28;72.72
55347;BME280;41218;55.700;38.270;2023-07-28T05:15:15;98317.84;;;22.32;72.87
55347;BME280;41218;55.700;38.270;2023-07-28T05:20:15;98315.31;;;22.34;72.63
55347;BME280;41218;55.700;38.270;2023-07-28T05:25:17;98316.41;;;22.36;72.42
55347;BME280;41218;55.700;38.270;2023-07-28T05:30:17;98314.66;;;22.39;72.32
55347;BME280;41218;55.700;38.270;2023-07-28T05:35:18;98318.34;;;22.45;72.68
55347;BME280;41218;55.700;38.270;2023-07-28T05:40:20;98321.03;;;22.54;72.10
55347;BME280;41218;55.700;38.270;2023-07-28T05:45:21;98330.66;;;22.63;72.22
55347;BME280;41218;55.700;38.270;2023-07-28T05:50:22;98337.16;;;22.69;72.10
55347;BME280;41218;55.700;38.270;2023-07-28T05:55:22;98337.25;;;22.74;71.75
55347;BME280;41218;55.700;38.270;2023-07-28T06:00:23;98338.00;;;22.90;71.73
55347;BME280;41218;55.700;38.270;2023-07-28T06:05:23;98350.25;;;23.02;71.63
55347;BME280;41218;55.700;38.270;2023-07-28T06:10:24;98352.38;;;23.07;70.90
55347;BME280;41218;55.700;38.270;2023-07-28T06:15:24;98359.34;;;23.11;70.75
55347;BME280;41218;55.700;38.270;2023-07-28T06:20:25;98355.84;;;23.16;70.85
55347;BME280;41218;55.700;38.270;2023-07-28T06:25:26;98364.09;;;23.20;70.72
55347;BME280;41218;55.700;38.270;2023-07-28T06:30:27;98358.28;;;23.24;70.62
55347;BME280;41218;55.700;38.270;2023-07-28T06:35:27;98376.72;;;23.25;70.75
55347;BME280;41218;55.700;38.270;2023-07-28T06:40:28;98393.53;;;23.34;70.66
55347;BME280;41218;55.700;38.270;2023-07-28T06:45:28;98423.63;;;23.43;70.65
55347;BME280;41218;55.700;38.270;2023-07-28T06:50:29;98423.00;;;23.53;70.83
55347;BME280;41218;55.700;38.270;2023-07-28T06:55:30;98457.69;;;23.59;70.75
55347;BME280;41218;55.700;38.270;2023-07-28T07:00:30;98557.69;;;23.58;70.84
55347;BME280;41218;55.700;38.270;2023-07-28T07:05:31;98571.50;;;23.56;70.50
55347;BME280;41218;55.700;38.270;2023-07-28T07:10:32;98521.22;;;23.55;70.38
55347;BME280;41218;55.700;38.270;2023-07-28T07:15:34;98473.38;;;23.46;70.20
55347;BME280;41218;55.700;38.270;2023-07-28T07:20:36;98434.09;;;23.57;69.51
55347;BME280;41218;55.700;38.270;2023-07-28T07:25:37;98452.63;;;23.64;69.39
55347;BME280;41218;55.700;38.270;2023-07-28T07:30:37;98447.66;;;23.73;68.93
55347;BME280;41218;55.700;38.270;2023-07-28T07:35:38;98427.00;;;23.82;68.74
55347;BME280;41218;55.700;38.270;2023-07-28T07:40:38;98424.34;;;23.93;68.36
55347;BME280;41218;55.700;38.270;2023-07-28T07:45:39;98394.84;;;23.94;67.75
55347;BME280;41218;55.700;38.270;2023-07-28T07:50:39;98404.78;;;24.10;67.34
55347;BME280;41218;55.700;38.270;2023-07-28T07:55:40;98401.25;;;24.15;67.28
55347;BME280;41218;55.700;38.270;2023-07-28T08:00:42;98376.13;;;24.17;66.89
55347;BME280;41218;55.700;38.270;2023-07-28T08:05:44;98403.06;;;24.18;66.55
55347;BME280;41218;55.700;38.270;2023-07-28T08:10:45;98426.59;;;24.10;66.05
55347;BME280;41218;55.700;38.270;2023-07-28T08:15:46;98443.13;;;24.17;65.68
55347;BME280;41218;55.700;38.270;2023-07-28T08:20:47;98424.75;;;24.07;65.55
55347;BME280;41218;55.700;38.270;2023-07-28T08:25:47;98389.81;;;24.04;65.43
55347;BME280;41218;55.700;38.270;2023-07-28T08:30:55;98409.66;;;24.10;64.80
55347;BME280;41218;55.700;38.270;2023-07-28T08:35:56;98429.31;;;24.25;64.82
55347;BME280;41218;55.700;38.270;2023-07-28T08:40:57;98425.72;;;24.24;64.85
55347;BME280;41218;55.700;38.270;2023-07-28T08:45:58;98454.53;;;24.28;64.83
55347;BME280;41218;55.700;38.270;2023-07-28T08:50:59;98459.69;;;24.30;65.14
55347;BME280;41218;55.700;38.270;2023-07-28T08:55:59;98442.75;;;24.30;64.68
55347;BME280;41218;55.700;38.270;2023-07-28T09:01:00;98445.91;;;24.37;64.97
55347;BME280;41218;55.700;38.270;2023-07-28T09:06:05;98472.44;;;24.46;64.75
55347;BME280;41218;55.700;38.270;2023-07-28T09:11:08;98486.31;;;24.49;64.67
55347;BME280;41218;55.700;38.270;2023-07-28T09:16:19;98487.22;;;24.55;64.07
55347;BME280;41218;55.700;38.270;2023-07-28T09:21:20;98496.75;;;24.58;64.10
55347;BME280;41218;55.700;38.270;2023-07-28T09:26:21;98515.78;;;24.63;63.96
55347;BME280;41218;55.700;38.270;2023-07-28T09:31:29;98507.31;;;24.63;63.82
55347;BME280;41218;55.700;38.270;2023-07-28T09:36:30;98530.72;;;24.64;63.92
55347;BME280;41218;55.700;38.270;2023-07-28T09:41:32;98561.50;;;24.62;64.03
55347;BME280;41218;55.700;38.270;2023-07-28T09:46:35;98586.09;;;24.55;64.21
55347;BME280;41218;55.700;38.270;2023-07-28T09:51:43;98590.38;;;24.51;64.27
55347;BME280;41218;55.700;38.270;2023-07-28T09:56:47;98589.41;;;24.39;64.60
55347;BME280;41218;55.700;38.270;2023-07-28T10:01:48;98571.41;;;24.36;64.60
55347;BME280;41218;55.700;38.270;2023-07-28T10:06:50;98561.41;;;24.35;64.27
55347;BME280;41218;55.700;38.270;2023-07-28T10:11:52;98544.59;;;24.26;64.52
55347;BME280;41218;55.700;38.270;2023-07-28T10:16:53;98562.88;;;24.31;63.96
55347;BME280;41218;55.700;38.270;2023-07-28T10:22:01;98559.47;;;24.27;64.26
55347;BME280;41218;55.700;38.270;2023-07-28T10:27:02;98546.56;;;24.20;64.54
55347;BME280;41218;55.700;38.270;2023-07-28T10:32:03;98518.78;;;24.13;64.49
55347;BME280;41218;55.700;38.270;2023-07-28T10:37:04;98542.69;;;24.17;64.92
55347;BME280;41218;55.700;38.270;2023-07-28T10:42:08;98524.53;;;24.24;64.99
55347;BME280;41218;55.700;38.270;2023-07-28T10:47:10;98512.28;;;24.27;65.02
55347;BME280;41218;55.700;38.270;2023-07-28T10:52:10;98486.63;;;24.31;64.66
55347;BME280;41218;55.700;38.270;2023-07-28T10:57:11;98469.75;;;24.36;64.47
55347;BME280;41218;55.700;38.270;2023-07-28T11:02:15;98473.16;;;24.40;64.21
55347;BME280;41218;55.700;38.270;2023-07-28T11:07:16;98459.19;;;24.52;63.84
55347;BME280;41218;55.700;38.270;2023-07-28T11:12:16;98396.09;;;24.61;63.45
55347;BME280;41218;55.700;38.270;2023-07-28T11:17:17;98412.56;;;24.62;63.06
55347;BME280;41218;55.700;38.270;2023-07-28T11:22:18;98439.41;;;24.78;62.82
55347;BME280;41218;55.700;38.270;2023-07-28T11:27:18;98435.59;;;24.81;62.54
55347;BME280;41218;55.700;38.270;2023-07-28T11:32:20;98455.84;;;24.79;62.81
55347;BME280;41218;55.700;38.270;2023-07-28T11:37:21;98458.66;;;24.74;62.98
55347;BME280;41218;55.700;38.270;2023-07-28T11:42:21;98484.84;;;24.74;62.92
55347;BME280;41218;55.700;38.270;2023-07-28T11:47:22;98502.78;;;24.71;63.41
55347;BME280;41218;55.700;38.270;2023-07-28T11:52:23;98489.66;;;24.68;63.29
55347;BME280;41218;55.700;38.270;2023-07-28T11:57:25;98497.97;;;24.77;63.00
55347;BME280;41218;55.700;38.270;2023-07-28T12:02:31;98500.28;;;24.79;62.00
55347;BME280;41218;55.700;38.270;2023-07-28T12:07:32;98510.84;;;24.78;62.31
55347;BME280;41218;55.700;38.270;2023-07-28T12:12:40;98531.16;;;24.83;62.24
55347;BME280;41218;55.700;38.270;2023-07-28T12:17:41;98529.00;;;24.72;62.50
55347;BME280;41218;55.700;38.270;2023-07-28T12:22:42;98554.19;;;24.75;62.88
55347;BME280;41218;55.700;38.270;2023-07-28T12:27:43;98558.25;;;24.69;63.10
55347;BME280;41218;55.700;38.270;2023-07-28T12:32:44;98575.41;;;24.65;63.46
55347;BME280;41218;55.700;38.270;2023-07-28T12:37:44;98582.53;;;24.61;63.38
55347;BME280;41218;55.700;38.270;2023-07-28T12:42:46;98576.25;;;24.51;63.43
55347;BME280;41218;55.700;38.270;2023-07-28T12:47:47;98589.00;;;24.46;63.76
55347;BME280;41218;55.700;38.270;2023-07-28T12:52:49;98578.34;;;24.35;63.13
55347;BME280;41218;55.700;38.270;2023-07-28T12:57:50;98591.34;;;24.27;63.09
55347;BME280;41218;55.700;38.270;2023-07-28T13:02:51;98588.63;;;24.18;63.48
55347;BME280;41218;55.700;38.270;2023-07-28T13:07:51;98605.69;;;24.09;63.56
55347;BME280;41218;55.700;38.270;2023-07-28T13:12:52;98613.00;;;24.00;64.22
55347;BME280;41218;55.700;38.270;2023-07-28T13:17:53;98610.41;;;23.97;64.23
55347;BME280;41218;55.700;38.270;2023-07-28T13:22:53;98598.06;;;23.79;64.46
55347;BME280;41218;55.700;38.270;2023-07-28T13:27:54;98594.25;;;23.68;65.29
55347;BME280;41218;55.700;38.270;2023-07-28T13:32:54;98582.50;;;23.54;66.11
55347;BME280;41218;55.700;38.270;2023-07-28T13:37:55;98562.84;;;23.45;66.37
55347;BME280;41218;55.700;38.270;2023-07-28T13:42:56;98600.88;;;23.35;66.59
55347;BME280;41218;55.700;38.270;2023-07-28T13:47:56;98603.09;;;23.31;67.13
55347;BME280;41218;55.700;38.270;2023-07-28T13:52:57;98554.13;;;23.28;67.56
55347;BME280;41218;55.700;38.270;2023-07-28T13:57:57;98595.25;;;23.20;68.08
55347;BME280;41218;55.700;38.270;2023-07-28T14:02:58;98538.66;;;23.09;67.73
55347;BME280;41218;55.700;38.270;2023-07-28T14:07:58;98549.13;;;22.93;68.33
55347;BME280;41218;55.700;38.270;2023-07-28T14:12:59;98591.56;;;22.90;68.67
55347;BME280;41218;55.700;38.270;2023-07-28T14:17:59;98597.19;;;22.90;68.62
55347;BME280;41218;55.700;38.270;2023-07-28T14:23:00;98582.81;;;22.88;68.67
55347;BME280;41218;55.700;38.270;2023-07-28T14:28:03;98610.09;;;22.82;68.48
55347;BME280;41218;55.700;38.270;2023-07-28T14:33:04;98623.72;;;22.83;68.68
55347;BME280;41218;55.700;38.270;2023-07-28T14:38:04;98621.97;;;22.86;68.83
55347;BME280;41218;55.700;38.270;2023-07-28T14:43:05;98603.09;;;22.77;68.68
55347;BME280;41218;55.700;38.270;2023-07-28T14:48:06;98613.41;;;22.80;68.85
55347;BME280;41218;55.700;38.270;2023-07-28T14:58:32;98634.88;;;22.77;69.03
55347;BME280;41218;55.700;38.270;2023-07-28T15:03:33;98650.28;;;22.67;69.54
55347;BME280;41218;55.700;38.270;2023-07-28T15:08:34;98661.75;;;22.54;69.70
55347;BME280;41218;55.700;38.270;2023-07-28T15:13:34;98666.69;;;22.45;69.67
55347;BME280;41218;55.700;38.270;2023-07-28T15:18:35;98671.41;;;22.38;69.67
55347;BME280;41218;55.700;38.270;2023-07-28T15:23:36;98678.00;;;22.26;69.68
55347;BME280;41218;55.700;38.270;2023-07-28T15:28:36;98667.69;;;22.23;69.68
55347;BME280;41218;55.700;38.270;2023-07-28T15:33:37;98663.19;;;22.16;69.54
55347;BME280;41218;55.700;38.270;2023-07-28T15:38:37;98656.81;;;22.07;69.63
55347;BME280;41218;55.700;38.270;2023-07-28T15:43:38;98650.13;;;21.95;69.47
55347;BME280;41218;55.700;38.270;2023-07-28T15:48:39;98639.41;;;21.84;69.58
55347;BME280;41218;55.700;38.270;2023-07-28T15:53:39;98666.25;;;21.85;69.76
55347;BME280;41218;55.700;38.270;2023-07-28T15:58:40;98672.25;;;21.78;69.30
55347;BME280;41218;55.700;38.270;2023-07-28T16:03:40;98664.28;;;21.67;69.24
55347;BME280;41218;55.700;38.270;2023-07-28T16:08:41;98685.53;;;21.59;69.32
55347;BME280;41218;55.700;38.270;2023-07-28T16:13:41;98670.25;;;21.51;69.61
55347;BME280;41218;55.700;38.270;2023-07-28T16:18:42;98664.31;;;21.39;69.42
55347;BME280;41218;55.700;38.270;2023-07-28T16:23:42;98682.41;;;21.38;69.77
55347;BME280;41218;55.700;38.270;2023-07-28T16:28:43;98684.44;;;21.38;69.90
55347;BME280;41218;55.700;38.270;2023-07-28T16:33:44;98663.38;;;21.24;70.02
55347;BME280;41218;55.700;38.270;2023-07-28T16:38:44;98676.34;;;21.21;69.65
55347;BME280;41218;55.700;38.270;2023-07-28T16:43:45;98681.66;;;21.19;69.79
55347;BME280;41218;55.700;38.270;2023-07-28T16:48:46;98662.78;;;21.11;69.75
55347;BME280;41218;55.700;38.270;2023-07-28T16:53:47;98652.59;;;21.04;69.90
55347;BME280;41218;55.700;38.270;2023-07-28T16:58:47;98643.72;;;20.96;69.96
55347;BME280;41218;55.700;38.270;2023-07-28T17:03:48;98634.84;;;20.89;69.81
55347;BME280;41218;55.700;38.270;2023-07-28T17:08:48;98642.63;;;20.85;69.94
55347;BME280;41218;55.700;38.270;2023-07-28T17:13:49;98628.88;;;20.77;69.99
55347;BME280;41218;55.700;38.270;2023-07-28T17:18:49;98612.81;;;20.69;70.41
55347;BME280;41218;55.700;38.270;2023-07-28T17:23:51;98624.34;;;20.61;70.44
55347;BME280;41218;55.700;38.270;2023-07-28T17:28:52;98637.28;;;20.59;70.49
55347;BME280;41218;55.700;38.270;2023-07-28T17:33:52;98658.31;;;20.54;70.83
55347;BME280;41218;55.700;38.270;2023-07-28T17:38:54;98671.09;;;20.46;70.78
55347;BME280;41218;55.700;38.270;2023-07-28T17:43:55;98675.91;;;20.46;70.98
55347;BME280;41218;55.700;38.270;2023-07-28T17:48:56;98665.47;;;20.46;71.18
55347;BME280;41218;55.700;38.270;2023-07-28T17:53:56;98666.56;;;20.49;70.75
55347;BME280;41218;55.700;38.270;2023-07-28T17:58:57;98670.28;;;20.36;71.29
55347;BME280;41218;55.700;38.270;2023-07-28T18:03:57;98677.28;;;20.32;71.04
55347;BME280;41218;55.700;38.270;2023-07-28T18:08:58;98682.41;;;20.33;71.31
55347;BME280;41218;55.700;38.270;2023-07-28T18:13:59;98679.59;;;20.24;71.33
55347;BME280;41218;55.700;38.270;2023-07-28T18:18:59;98694.38;;;20.25;71.24
55347;BME280;41218;55.700;38.270;2023-07-28T18:24:00;98710.44;;;20.24;71.18
55347;BME280;41218;55.700;38.270;2023-07-28T18:29:00;98720.91;;;20.24;71.35
55347;BME280;41218;55.700;38.270;2023-07-28T18:34:01;98714.66;;;20.19;71.56
55347;BME280;41218;55.700;38.270;2023-07-28T18:39:01;98718.16;;;20.11;71.41
55347;BME280;41218;55.700;38.270;2023-07-28T18:44:02;98725.94;;;20.07;71.54
55347;BME280;41218;55.700;38.270;2023-07-28T18:49:03;98709.25;;;20.03;71.42
55347;BME280;41218;55.700;38.270;2023-07-28T18:54:03;98704.38;;;19.94;71.38
55347;BME280;41218;55.700;38.270;2023-07-28T18:59:04;98717.13;;;19.86;71.75
55347;BME280;41218;55.700;38.270;2023-07-28T19:04:05;98715.69;;;19.81;71.89
55347;BME280;41218;55.700;38.270;2023-07-28T19:09:06;98713.66;;;19.82;71.67
55347;BME280;41218;55.700;38.270;2023-07-28T19:14:06;98729.72;;;19.81;71.79
55347;BME280;41218;55.700;38.270;2023-07-28T19:19:07;98731.75;;;19.81;71.86
55347;BME280;41218;55.700;38.270;2023-07-28T19:24:07;98756.50;;;19.83;71.71
55347;BME280;41218;55.700;38.270;2023-07-28T19:29:08;98756.50;;;19.83;71.65
55347;BME280;41218;55.700;38.270;2023-07-28T19:34:10;98752.59;;;19.80;71.61
55347;BME280;41218;55.700;38.270;2023-07-28T19:39:10;98772.22;;;19.80;71.84
55347;BME280;41218;55.700;38.270;2023-07-28T19:44:11;98758.47;;;19.73;71.39
55347;BME280;41218;55.700;38.270;2023-07-28T19:49:11;98766.09;;;19.72;71.60
55347;BME280;41218;55.700;38.270;2023-07-28T19:54:12;98770.22;;;19.68;71.46
55347;BME280;41218;55.700;38.270;2023-07-28T19:59:13;98781.25;;;19.62;71.59
55347;BME280;41218;55.700;38.270;2023-07-28T20:04:14;98777.78;;;19.58;71.52
55347;BME280;41218;55.700;38.270;2023-07-28T20:09:14;98794.47;;;19.61;71.25
55347;BME280;41218;55.700;38.270;2023-07-28T20:14:15;98785.88;;;19.56;71.76
55347;BME280;41218;55.700;38.270;2023-07-28T20:19:15;98802.56;;;19.59;71.57
55347;BME280;41218;55.700;38.270;2023-07-28T20:24:16;98807.84;;;19.57;71.78
55347;BME280;41218;55.700;38.270;2023-07-28T20:29:16;98796.88;;;19.50;71.92
55347;BME280;41218;55.700;38.270;2023-07-28T20:34:17;98817.63;;;19.53;71.80
55347;BME280;41218;55.700;38.270;2023-07-28T20:39:18;98822.91;;;19.51;71.66
55347;BME280;41218;55.700;38.270;2023-07-28T20:44:18;98811.34;;;19.49;71.67
55347;BME280;41218;55.700;38.270;2023-07-28T20:49:20;98805.53;;;19.43;71.88
55347;BME280;41218;55.700;38.270;2023-07-28T20:54:21;98799.16;;;19.42;71.85
55347;BME280;41218;55.700;38.270;2023-07-28T20:59:22;98805.44;;;19.34;71.79
55347;BME280;41218;55.700;38.270;2023-07-28T21:04:23;98823.72;;;19.38;71.71
55347;BME280;41218;55.700;38.270;2023-07-28T21:09:24;98813.66;;;19.28;71.90
55347;BME280;41218;55.700;38.270;2023-07-28T21:14:24;98828.34;;;19.19;71.96
55347;BME280;41218;55.700;38.270;2023-07-28T21:19:25;98849.41;;;19.11;71.79
55347;BME280;41218;55.700;38.270;2023-07-28T21:24:26;98844.41;;;19.06;72.26
55347;BME280;41218;55.700;38.270;2023-07-28T21:29:27;98847.75;;;19.01;72.29
55347;BME280;41218;55.700;38.270;2023-07-28T21:34:27;98847.84;;;18.97;72.26
55347;BME280;41218;55.700;38.270;2023-07-28T21:39:28;98845.41;;;18.99;72.29
55347;BME280;41218;55.700;38.270;2023-07-28T21:44:28;98819.00;;;18.88;72.10
55347;BME280;41218;55.700;38.270;2023-07-28T21:49:29;98846.06;;;18.91;72.13
55347;BME280;41218;55.700;38.270;2023-07-28T21:54:29;98846.66;;;18.86;72.13
55347;BME280;41218;55.700;38.270;2023-07-28T21:59:30;98827.44;;;18.71;72.14
55347;BME280;41218;55.700;38.270;2023-07-28T22:04:30;98815.16;;;18.69;72.25
55347;BME280;41218;55.700;38.270;2023-07-28T22:09:31;98805.31;;;18.64;72.22
55347;BME280;41218;55.700;38.270;2023-07-28T22:14:32;98807.97;;;18.55;72.14
55347;BME280;41218;55.700;38.270;2023-07-28T22:19:32;98799.91;;;18.44;72.30
55347;BME280;41218;55.700;38.270;2023-07-28T22:24:33;98821.63;;;18.53;72.23
55347;BME280;41218;55.700;38.270;2023-07-28T22:29:33;98831.03;;;18.46;72.30
55347;BME280;41218;55.700;38.270;2023-07-28T22:34:34;98817.63;;;18.41;72.24
55347;BME280;41218;55.700;38.270;2023-07-28T22:39:34;98828.22;;;18.33;72.23
55347;BME280;41218;55.700;38.270;2023-07-28T22:44:35;98813.56;;;18.29;72.15
55347;BME280;41218;55.700;38.270;2023-07-28T22:49:35;98812.22;;;18.21;72.32
55347;BME280;41218;55.700;38.270;2023-07-28T22:54:36;98816.22;;;18.20;72.42
55347;BME280;41218;55.700;38.270;2023-07-28T22:59:36;98831.47;;;18.32;72.15
55347;BME280;41218;55.700;38.270;2023-07-28T23:04:38;98808.84;;;18.13;72.31
55347;BME280;41218;55.700;38.270;2023-07-28T23:09:42;98799.88;;;18.18;71.97
55347;BME280;41218;55.700;38.270;2023-07-28T23:14:43;98800.78;;;18.02;72.12
55347;BME280;41218;55.700;38.270;2023-07-28T23:19:43;98817.41;;;18.06;72.12
55347;BME280;41218;55.700;38.270;2023-07-28T23:24:44;98805.78;;;17.95;72.28
55347;BME280;41218;55.700;38.270;2023-07-28T23:29:44;98815.53;;;18.03;72.35
55347;BME280;41218;55.700;38.270;2023-07-28T23:34:45;98817.06;;;17.91;72.25
55347;BME280;41218;55.700;38.270;2023-07-28T23:39:45;98829.50;;;18.03;72.36
55347;BME280;41218;55.700;38.270;2023-07-28T23:44:45;98822.97;;;17.93;72.33
55347;BME280;41218;55.700;38.270;2023-07-28T23:49:46;98837.34;;;18.08;72.28
55347;BME280;41218;55.700;38.270;2023-07-28T23:54:46;98834.06;;;17.97;72.20
55347;BME280;41218;55.700;38.270;2023-07-28T23:59:47;98833.06;;;18.04;72.12
